Latest Coastal Weather Observations for Bellambi

IDN60701

Issued at 2:11 pm EST Wednesday 26 April 2017 (issued every 10 minutes, with the page automatically refreshed every 10 minutes)

About coastal observations | Map of coastal stations | Coastal observations for NSW | Marine services | Other Formats
Station Details ID: 068228 Name: BELLAMBI AWS Lat: -34.37 Lon: 150.93 Height: 10.0 m
Data from the previous 72 hours. | See also: Recent months at Bellambi
Date/Time
EST
Temp
°C
Wind Pressure Rain since
9am
mm
Weather Cloud Vis
km
Sea
Height
m
Swell
Dir  Spd
kts
Gust
kts
hPa Trend Height
m
Period
s
Dir
26/02:00pm 23.1 WNW 10 15 - - 0.0 - Partly cloudy - - - - -
26/01:30pm 22.4 WNW 8 16 - - 0.0 - Partly cloudy - - - - -
26/01:00pm 21.5 SSW 5 11 - - 0.0 - Partly cloudy - - - - -
26/12:30pm 23.1 W 7 13 - - 0.0 - Partly cloudy - - - - -
26/12:00pm 23.6 NW 9 14 - - 0.0 - Mostly clear - - - - -
26/11:30am 23.1 NW 11 20 - - 0.0 - Partly cloudy - - - - -
26/11:00am 22.5 NNW 13 20 - - 0.0 - - - - - - -
26/10:30am 21.8 NW 11 14 - - 0.0 - - - - - - -
26/10:00am 21.5 NNW 9 16 - - 0.0 - - - - - - -
26/09:30am 20.8 E 4 6 - - 0.0 - - - - - - -
26/09:00am 19.8 SSE 5 9 - - 0.2 - - - - - - -
26/08:30am 19.2 SSE 5 7 - - 0.2 - - - - - - -
26/08:00am 18.7 S 4 6 - - 0.2 - - - - - - -
26/07:30am 17.9 NNE 9 13 - - 0.2 - - - - - - -
26/07:00am 16.1 NW 5 10 - - 0.2 - - - - - - -
26/06:30am 15.9 WNW 6 8 - - 0.2 - - - - - - -
26/06:00am 16.3 WNW 9 11 - - 0.2 - - - - - - -
26/05:30am 16.1 WNW 8 12 - - 0.2 - - - - - - -
26/05:00am 16.5 WNW 10 14 - - 0.2 - - - - - - -
26/04:30am 16.6 NW 8 11 - - 0.2 - - - - - - -
26/04:00am 17.4 NW 8 11 - - 0.2 - Partly cloudy - - - - -
26/03:30am 18.5 WNW 12 16 - - 0.2 - - - - - - -
26/03:00am 17.6 NW 11 13 - - 0.2 - - - - - - -
26/02:30am 17.6 NW 9 10 - - 0.2 - - - - - - -
26/02:00am 17.9 NW 9 13 - - 0.2 - - - - - - -
26/01:30am 17.9 NW 5 8 - - 0.2 - - - - - - -
26/01:00am 18.3 NW 7 9 - - 0.2 - - - - - - -
26/12:30am 18.8 WNW 5 7 - - 0.2 - Partly cloudy - - - - -
26/12:00am 19.4 NW 6 9 - - 0.2 - Cloudy - - - - -
 
Date/Time
EST
Temp
°C
Wind Pressure Rain since
9am
mm
Weather Cloud Vis
km
Sea
Height
m
Swell
Dir  Spd
kts
Gust
kts
hPa Trend Height
m
Period
s
Dir
25/11:30pm 19.5 NW 6 10 - - 0.2 - Partly cloudy - - - - -
25/11:00pm 19.7 WNW 4 10 - - 0.2 - Partly cloudy - - - - -
25/10:30pm 19.2 NNW 2 6 - - 0.2 - Partly cloudy - - - - -
25/10:00pm 19.6 N 3 5 - - 0.2 - Partly cloudy - - - - -
25/09:30pm 19.3 WNW 1 4 - - 0.2 - - - - - - -
25/09:00pm 19.1 CALM 0 0 - - 0.2 - Cloudy - - - - -
25/08:30pm 19.4 NNW 4 5 - - 0.2 - Cloudy - - - - -
25/08:00pm 20.0 N 6 7 - - 0.2 - Partly cloudy - - - - -
25/07:30pm 20.4 NNE 9 11 - - 0.2 - Cloudy - - - - -
25/07:00pm 19.7 NE 9 11 - - 0.2 - Cloudy - - - - -
25/06:30pm 20.2 NNE 7 8 - - 0.2 - Cloudy - - - - -
25/06:00pm 20.0 NNE 10 12 - - 0.2 - Mostly cloudy - - - - -
25/05:30pm 20.9 N 9 11 - - 0.2 - Cloudy - - - - -
25/05:00pm 21.0 N 11 13 - - 0.2 - Partly cloudy - - - - -
25/04:30pm 21.5 N 12 16 - - 0.2 - - - - - - -
25/04:00pm 21.6 N 6 9 - - 0.2 - - - - - - -
25/03:30pm 21.9 NNW 10 13 - - 0.2 - - - - - - -
25/03:00pm 21.8 NNW 14 19 - - 0.2 Recent precip. Cloudy - - - - -
25/02:30pm 21.5 NNW 11 15 - - 0.2 - Cloudy - - - - -
25/02:00pm 23.0 NW 12 15 - - 0.0 - Cloudy - - - - -
25/01:30pm 23.5 NNW 8 13 - - 0.0 - Partly cloudy - - - - -
25/01:00pm 23.7 NNE 7 10 - - 0.0 - - - - - - -
25/12:30pm 21.9 NE 11 16 - - 0.0 - - - - - - -
25/12:00pm 23.6 NNW 10 17 - - 0.0 - Cloudy - - - - -
25/11:47am 23.8 N 11 24 - - 0.0 - - - - - - -
25/11:30am 22.8 NE 7 9 - - 0.0 - - - - - - -
25/11:00am 22.4 NE 7 10 - - 0.0 - - - - - - -
25/10:30am 22.5 N 11 15 - - 0.0 - - - - - - -
25/10:00am 21.4 NE 7 11 - - 0.0 - Cloudy - - - - -
25/09:30am 20.2 ENE 12 15 - - 0.0 - Partly cloudy - - - - -
25/09:00am 20.1 NE 13 16 - - 0.0 - Cloudy - - - - -
25/08:30am 19.8 NNE 9 11 - - 0.0 - Partly cloudy - - - - -
25/08:00am 19.8 NNE 9 12 - - 0.0 - - - - - - -
25/07:30am 19.6 N 8 9 - - 0.0 - - - - - - -
25/07:00am 19.9 NNE 9 12 - - 0.0 - Partly cloudy - - - - -
25/06:30am 20.1 N 12 15 - - 0.0 - Partly cloudy - - - - -
25/06:00am 20.4 N 11 15 - - 0.0 - Cloudy - - - - -
25/05:30am 19.7 N 10 13 - - 0.0 - Partly cloudy - - - - -
25/05:00am 19.9 N 13 15 - - 0.0 - Partly cloudy - - - - -
25/04:30am 19.9 N 12 15 - - 0.0 - Partly cloudy - - - - -
25/04:00am 20.1 N 11 15 - - 0.0 - Partly cloudy - - - - -
25/03:30am 20.4 N 12 16 - - 0.0 - Partly cloudy - - - - -
25/03:00am 20.4 N 14 18 - - 0.0 - Cloudy - - - - -
25/02:30am 19.9 N 13 15 - - 0.0 - - - - - - -
25/02:00am 20.0 N 11 14 - - 0.0 - - - - - - -
25/01:30am 20.2 N 14 18 - - 0.0 - Partly cloudy - - - - -
25/01:00am 20.4 NNW 17 20 - - 0.0 - Cloudy - - - - -
25/12:30am 20.0 NNW 8 12 - - 0.0 - Cloudy - - - - -
25/12:00am 20.1 N 6 10 - - 0.0 - Cloudy - - - - -
 
Date/Time
EST
Temp
°C
Wind Pressure Rain since
9am
mm
Weather Cloud Vis
km
Sea
Height
m
Swell
Dir  Spd
kts
Gust
kts
hPa Trend Height
m
Period
s
Dir
24/11:30pm 20.2 NNW 11 14 - - 0.0 - Cloudy - - - - -
24/11:00pm 20.1 NNW 15 17 - - 0.0 - Partly cloudy - - - - -
24/10:30pm 20.1 N 15 17 - - 0.0 - Partly cloudy - - - - -
24/10:00pm 20.2 N 13 16 - - 0.0 - - - - - - -
24/09:30pm 20.1 NNE 8 11 - - 0.0 - Partly cloudy - - - - -
24/09:00pm 19.9 NNE 8 10 - - 0.0 - Mostly cloudy - - - - -
24/08:30pm 19.9 N 8 10 - - 0.0 - - - - - - -
24/08:00pm 20.0 N 8 9 - - 0.0 - - - - - - -
24/07:30pm 19.4 N 6 8 - - 0.0 - - - - - - -
24/07:00pm 19.6 NNW 6 8 - - 0.0 - - - - - - -
24/06:30pm 19.8 NNW 6 8 - - 0.0 - - - - - - -
24/06:00pm 20.0 NNE 10 11 - - 0.0 - - - - - - -
24/05:30pm 20.2 N 9 11 - - 0.0 - - - - - - -
24/05:00pm 20.4 N 8 9 - - 0.0 - - - - - - -
24/04:30pm 20.8 NNE 7 10 - - 0.0 - - - - - - -
24/04:00pm 21.1 NNE 6 8 - - 0.0 - - - - - - -
24/03:30pm 21.8 NNE 5 7 - - 0.0 - - - - - - -
24/03:00pm 21.7 N 5 7 - - 0.0 - - - - - - -
24/02:30pm 21.7 N 6 7 - - 0.0 - - - - - - -
24/02:00pm 21.7 N 5 6 - - 0.0 - - - - - - -
24/01:30pm 21.8 N 5 7 - - 0.0 - - - - - - -
24/01:00pm 22.5 NE 5 6 - - 0.0 - - - - - - -
24/12:30pm 21.8 NE 5 7 - - 0.0 - - - - - - -
24/12:00pm 21.6 ENE 6 7 - - 0.0 - - - - - - -
24/11:30am 21.8 ENE 5 6 - - 0.0 - - - - - - -
24/11:00am 21.4 NE 5 6 - - 0.0 - - - - - - -
24/10:30am 21.4 ENE 4 5 - - 0.0 - - - - - - -
24/10:00am 20.9 ENE 4 5 - - 0.0 - - - - - - -
24/09:30am 21.0 ENE 4 5 - - 0.0 - - - - - - -
24/09:00am 20.5 E 4 5 - - 0.0 - - - - - - -
24/08:30am 19.7 CALM 0 0 - - 0.0 - - - - - - -
24/08:00am 19.0 CALM 0 0 - - 0.0 - - - - - - -
24/07:30am 16.9 CALM 0 0 - - 0.0 - - - - - - -
24/07:00am 15.6 W 1 4 - - 0.0 - - - - - - -
24/06:30am 15.4 WNW 5 5 - - 0.0 - - - - - - -
24/06:00am 15.9 W 5 5 - - 0.0 - - - - - - -
24/05:30am 15.6 WNW 4 5 - - 0.0 - - - - - - -
24/05:00am 15.8 NW 4 5 - - 0.0 - - - - - - -
24/04:30am 15.7 WNW 5 5 - - 0.0 - - - - - - -
24/04:00am 15.9 WNW 5 6 - - 0.0 - - - - - - -
24/03:30am 15.9 WNW 5 6 - - 0.0 - - - - - - -
24/03:00am 16.3 WNW 5 6 - - 0.0 - - - - - - -
24/02:30am 16.1 WNW 5 6 - - 0.0 - - - - - - -
24/02:00am 16.3 NW 4 4 - - 0.0 - - - - - - -
24/01:30am 16.8 W 4 5 - - 0.0 - - - - - - -
24/01:00am 17.1 W 6 6 - - 0.0 - - - - - - -
24/12:30am 17.3 W 5 6 - - 0.0 - - - - - - -
24/12:00am 17.4 W 5 6 - - 0.0 - Mostly clear - - - - -
 
Date/Time
EST
Temp
°C
Wind Pressure Rain since
9am
mm
Weather Cloud Vis
km
Sea
Height
m
Swell
Dir  Spd
kts
Gust
kts
hPa Trend Height
m
Period
s
Dir
23/11:30pm 17.2 W 4 5 - - 0.0 - - - - - - -
23/11:00pm 17.3 WSW 3 6 - - 0.0 - Partly cloudy - - - - -
23/10:30pm 17.8 WSW 6 8 - - 0.0 - - - - - - -
23/10:00pm 18.0 WSW 6 7 - - 0.0 - - - - - - -
23/09:30pm 18.0 WSW 6 7 - - 0.0 - - - - - - -
23/09:00pm 18.1 W 5 6 - - 0.0 - - - - - - -
23/08:30pm 18.2 W 5 6 - - 0.0 - - - - - - -
23/08:00pm 18.2 WSW 5 6 - - 0.0 - - - - - - -
23/07:30pm 18.6 W 4 5 - - 0.0 - - - - - - -
23/07:00pm 18.9 WSW 5 6 - - 0.0 - - - - - - -
23/06:30pm 19.7 SSW 7 8 - - 0.0 - Partly cloudy - - - - -
23/06:00pm 20.1 S 7 8 - - 0.0 - Mostly clear - - - - -
23/05:30pm 20.0 S 5 7 - - 0.0 - - - - - - -
23/05:00pm 20.2 S 5 6 - - 0.0 - - - - - - -
23/04:30pm 20.7 SSE 5 7 - - 0.0 - - - - - - -
23/04:00pm 21.3 SSE 5 7 - - 0.0 - - - - - - -
23/03:30pm 21.4 SSE 5 6 - - 0.0 - - - - - - -
23/03:00pm 21.7 SSE 5 6 - - 0.0 - - - - - - -
23/02:30pm 22.1 SSE 5 7 - - 0.0 - - - - - - -

Other Formats:

Comma delimited format used in spreadsheet applications
http://www.bom.gov.au/fwo/IDN60701/IDN60701.94749.axf

JavaScript Object Notation format (JSON) in row-major order
http://www.bom.gov.au/fwo/IDN60701/IDN60701.94749.json